Time;durP1;ratioP1;P1;durP2;ratioP2;P2;SDS_P1;SDS_P2;PMS_P1;PMS_P2;Temp;Humidity;BMP_temperature;BMP_pressure;BME280_temperature;BME280_humidity;BME280_pressure;Samples;Min_cycle;Max_cycle;Signal;HPM_P1;HPM_P2
2022/12/15 10:11:48;;;;;;;;;;;23.60;28.20;;;;;;508206;234;1182;-46
2022/12/15 10:13:49;;;;;;;;;;;23.40;29.10;;;;;;500054;238;1154;-43
2022/12/15 10:15:50;;;;;;;;;;;23.20;29.30;;;;;;500234;237;1384;-43
2022/12/15 10:17:52;;;;;;;;;;;23.00;29.50;;;;;;500080;237;1179;-43
2022/12/15 10:19:54;;;;;;;;;;;22.90;29.70;;;;;;500166;237;1175;-43
2022/12/15 10:21:55;;;;;;;;;;;22.80;29.70;;;;;;499964;237;1217;-43
2022/12/15 10:23:56;;;;;;;;;;;22.70;29.80;;;;;;500126;237;1268;-45
2022/12/15 10:25:58;;;;;;;;;;;22.60;29.90;;;;;;500009;237;1207;-45
2022/12/15 10:27:59;;;;;;;;;;;22.60;30.00;;;;;;500012;237;1203;-45
2022/12/15 10:30:00;;;;;;;;;;;22.50;30.00;;;;;;500029;237;2205;-43
2022/12/15 10:32:02;;;;;;;;;;;22.50;30.00;;;;;;500469;237;1093;-43
2022/12/15 10:34:03;;;;;;;;;;;22.50;30.00;;;;;;500033;237;1266;-43
2022/12/15 10:36:06;;;;;;;;;;;22.50;30.00;;;;;;500126;237;1152;-44
2022/12/15 10:38:06;;;;;;;;;;;22.70;29.90;;;;;;499875;238;1382;-43
2022/12/15 10:40:07;;;;;;;;;;;22.90;29.70;;;;;;500046;238;1603;-43
2022/12/15 10:42:09;;;;;;;;;;;22.80;29.60;;;;;;500206;237;1178;-43
2022/12/15 10:44:10;;;;;;;;;;;22.70;29.70;;;;;;500193;237;2063;-43
2022/12/15 10:46:12;;;;;;;;;;;22.60;29.90;;;;;;500283;237;1126;-43
2022/12/15 10:48:13;;;;;;;;;;;22.50;29.90;;;;;;500099;237;1122;-43
2022/12/15 10:50:15;;;;;;;;;;;22.40;30.00;;;;;;500150;237;2187;-43
2022/12/15 10:52:16;;;;;;;;;;;22.40;30.10;;;;;;500125;237;1122;-43
2022/12/15 10:54:17;;;;;;;;;;;22.30;30.10;;;;;;499981;237;1179;-43
2022/12/15 10:56:18;;;;;;;;;;;22.20;30.20;;;;;;500274;237;1145;-43
2022/12/15 10:58:20;;;;;;;;;;;22.20;30.30;;;;;;500006;237;1115;-43
2022/12/15 11:00:23;;;;;;;;;;;22.20;30.30;;;;;;500136;237;1123;-43
2022/12/15 11:02:23;;;;;;;;;;;22.10;30.30;;;;;;500218;238;2623;-43
2022/12/15 11:04:25;;;;;;;;;;;22.10;30.40;;;;;;500321;237;1133;-43
2022/12/15 11:06:26;;;;;;;;;;;22.10;30.40;;;;;;500123;237;1159;-43
2022/12/15 11:08:27;;;;;;;;;;;22.10;30.30;;;;;;500077;237;1075;-43
2022/12/15 11:12:50;;;;;;;;;;;22.10;30.30;;;;;;500012;237;2251;-43
2022/12/15 11:14:49;;;;;;;;;;;22.10;30.40;;;;;;500042;238;1111;-43
2022/12/15 11:16:51;;;;;;;;;;;22.10;30.40;;;;;;500081;237;1145;-43
2022/12/15 11:18:52;;;;;;;;;;;22.10;30.30;;;;;;500351;237;1138;-43
2022/12/15 11:20:53;;;;;;;;;;;22.10;30.30;;;;;;500148;237;1121;-43
2022/12/15 11:22:55;;;;;;;;;;;22.10;30.20;;;;;;499966;237;1149;-43
2022/12/15 11:24:56;;;;;;;;;;;22.20;30.20;;;;;;500272;237;1148;-43
2022/12/15 11:26:57;;;;;;;;;;;22.20;30.20;;;;;;499920;237;1138;-43
2022/12/15 11:28:59;;;;;;;;;;;22.10;30.20;;;;;;500194;237;1242;-43
2022/12/15 11:31:00;;;;;;;;;;;22.20;30.20;;;;;;500337;237;2159;-43
2022/12/15 11:33:01;;;;;;;;;;;22.20;30.20;;;;;;499967;237;1290;-43
2022/12/15 11:35:03;;;;;;;;;;;22.20;30.20;;;;;;500271;237;1117;-43
2022/12/15 11:37:04;;;;;;;;;;;22.20;30.10;;;;;;500153;237;1292;-43
2022/12/15 11:39:05;;;;;;;;;;;22.20;30.10;;;;;;500127;237;1078;-43
2022/12/15 11:41:07;;;;;;;;;;;22.20;30.10;;;;;;500136;237;1273;-43
2022/12/15 11:43:08;;;;;;;;;;;22.20;30.10;;;;;;500409;237;1088;-43
2022/12/15 11:45:09;;;;;;;;;;;22.30;30.10;;;;;;499837;237;1457;-43
2022/12/15 11:47:11;;;;;;;;;;;22.30;30.00;;;;;;500340;237;1232;-43
2022/12/15 11:49:12;;;;;;;;;;;22.30;30.00;;;;;;500203;237;1209;-43
2022/12/15 11:51:13;;;;;;;;;;;22.20;30.00;;;;;;500193;237;2176;-43
2022/12/15 11:53:15;;;;;;;;;;;22.30;30.00;;;;;;500045;237;1199;-43
2022/12/15 11:55:16;;;;;;;;;;;22.30;30.00;;;;;;499961;237;1404;-43
2022/12/15 11:57:17;;;;;;;;;;;22.30;30.00;;;;;;500094;237;1279;-43
2022/12/15 11:59:19;;;;;;;;;;;22.30;30.00;;;;;;499851;237;1078;-43
2022/12/15 12:01:20;;;;;;;;;;;22.30;30.00;;;;;;499925;237;1144;-43
2022/12/15 12:03:21;;;;;;;;;;;22.30;30.00;;;;;;500044;237;1200;-43
2022/12/15 12:05:22;;;;;;;;;;;22.30;30.00;;;;;;499998;237;1210;-43
2022/12/15 12:07:24;;;;;;;;;;;22.30;30.00;;;;;;499944;237;1304;-43
2022/12/15 12:09:25;;;;;;;;;;;22.30;30.00;;;;;;500044;237;1231;-43
2022/12/15 12:11:26;;;;;;;;;;;22.30;30.00;;;;;;499887;237;2196;-43
2022/12/15 12:13:28;;;;;;;;;;;22.30;30.00;;;;;;500192;237;1186;-43
2022/12/15 12:15:29;;;;;;;;;;;22.30;30.00;;;;;;500121;237;1123;-43
2022/12/15 12:17:30;;;;;;;;;;;22.30;30.00;;;;;;499886;237;1167;-43
2022/12/15 12:19:32;;;;;;;;;;;22.30;30.00;;;;;;500308;237;1144;-43
2022/12/15 12:21:33;;;;;;;;;;;22.30;30.00;;;;;;499995;237;1137;-43
2022/12/15 12:23:35;;;;;;;;;;;22.30;30.00;;;;;;500026;237;1236;-43
2022/12/15 12:25:36;;;;;;;;;;;22.30;30.00;;;;;;499969;237;1268;-43
2022/12/15 12:27:38;;;;;;;;;;;22.30;30.00;;;;;;499821;237;1193;-43
2022/12/15 12:29:39;;;;;;;;;;;22.30;30.00;;;;;;500018;237;1931;-43
2022/12/15 12:31:40;;;;;;;;;;;22.30;30.00;;;;;;500129;237;2191;-43
2022/12/15 12:33:41;;;;;;;;;;;22.30;30.00;;;;;;499965;237;1159;-43
2022/12/15 12:35:43;;;;;;;;;;;22.30;30.00;;;;;;500232;237;1136;-43
2022/12/15 12:37:44;;;;;;;;;;;22.30;30.00;;;;;;500012;237;1246;-43
2022/12/15 12:39:45;;;;;;;;;;;22.30;30.00;;;;;;499923;237;1276;-43
2022/12/15 12:41:47;;;;;;;;;;;22.30;30.00;;;;;;500032;237;1272;-43
2022/12/15 12:43:48;;;;;;;;;;;22.30;30.00;;;;;;500287;237;1255;-43
2022/12/15 12:45:49;;;;;;;;;;;22.30;30.00;;;;;;499953;237;1152;-43
2022/12/15 12:47:51;;;;;;;;;;;22.30;30.00;;;;;;500125;237;1152;-43
2022/12/15 12:49:52;;;;;;;;;;;22.30;30.00;;;;;;500032;237;1243;-43
2022/12/15 12:51:53;;;;;;;;;;;22.30;30.00;;;;;;499902;237;2192;-43
2022/12/15 12:53:55;;;;;;;;;;;22.30;30.00;;;;;;499991;237;1161;-43
2022/12/15 12:55:56;;;;;;;;;;;22.30;30.00;;;;;;499893;237;1135;-43
2022/12/15 12:57:57;;;;;;;;;;;22.30;29.90;;;;;;499783;237;1229;-43
2022/12/15 12:59:59;;;;;;;;;;;22.30;30.00;;;;;;500234;237;1238;-43
2022/12/15 13:02:00;;;;;;;;;;;22.30;29.90;;;;;;499951;237;1235;-43
2022/12/15 13:04:02;;;;;;;;;;;22.30;29.90;;;;;;499854;237;1111;-43
2022/12/15 13:06:03;;;;;;;;;;;22.30;29.90;;;;;;500048;237;1155;-43
2022/12/15 13:08:04;;;;;;;;;;;22.30;29.90;;;;;;499846;237;1087;-43
2022/12/15 13:10:06;;;;;;;;;;;22.30;29.90;;;;;;500099;237;1337;-43
2022/12/15 13:12:07;;;;;;;;;;;22.30;30.00;;;;;;499908;237;2168;-43
2022/12/15 13:14:08;;;;;;;;;;;22.30;30.00;;;;;;500044;237;1119;-43
2022/12/15 13:16:10;;;;;;;;;;;22.30;30.00;;;;;;500229;237;1126;-43
2022/12/15 13:18:11;;;;;;;;;;;22.20;30.00;;;;;;500016;237;1092;-43
2022/12/15 13:20:12;;;;;;;;;;;22.20;30.00;;;;;;500186;237;1213;-43
2022/12/15 13:22:14;;;;;;;;;;;22.20;30.00;;;;;;500401;237;1073;-43
2022/12/15 13:24:15;;;;;;;;;;;22.20;30.10;;;;;;499978;237;1187;-43
2022/12/15 13:26:16;;;;;;;;;;;22.10;30.10;;;;;;500061;237;1106;-44
2022/12/15 13:28:17;;;;;;;;;;;22.10;30.10;;;;;;499947;237;1395;-44
2022/12/15 13:30:19;;;;;;;;;;;22.10;30.10;;;;;;500060;237;1123;-44
2022/12/15 13:32:20;;;;;;;;;;;22.10;30.10;;;;;;500132;237;2156;-44
2022/12/15 13:34:21;;;;;;;;;;;22.00;30.10;;;;;;500013;237;1075;-44
2022/12/15 13:36:23;;;;;;;;;;;22.10;30.10;;;;;;500308;237;1190;-44
2022/12/15 13:38:24;;;;;;;;;;;22.00;30.10;;;;;;499906;237;1087;-44
2022/12/15 13:40:31;;;;;;;;;;;22.00;30.10;;;;;;500346;237;1205;-44
2022/12/15 13:42:27;;;;;;;;;;;22.00;30.20;;;;;;499712;238;1375;-44
2022/12/15 13:44:28;;;;;;;;;;;22.00;30.20;;;;;;500488;237;1249;-44
2022/12/15 13:46:30;;;;;;;;;;;22.00;30.20;;;;;;500047;237;1128;-43
2022/12/15 13:48:31;;;;;;;;;;;22.00;30.20;;;;;;499875;237;1317;-44
2022/12/15 13:50:32;;;;;;;;;;;22.00;30.30;;;;;;500255;237;1280;-44
2022/12/15 13:52:34;;;;;;;;;;;21.90;30.20;;;;;;500178;237;2199;-43
2022/12/15 13:54:35;;;;;;;;;;;21.90;30.20;;;;;;500081;237;1122;-43
2022/12/15 13:56:37;;;;;;;;;;;21.90;30.20;;;;;;499936;237;1317;-43
2022/12/15 13:58:38;;;;;;;;;;;21.90;30.20;;;;;;499945;237;1106;-44
2022/12/15 14:00:40;;;;;;;;;;;21.90;30.20;;;;;;500145;237;1161;-43
2022/12/15 14:02:41;;;;;;;;;;;22.00;30.30;;;;;;500365;237;1188;-44
2022/12/15 14:04:42;;;;;;;;;;;21.90;30.20;;;;;;500079;237;1180;-43
2022/12/15 14:06:44;;;;;;;;;;;22.00;30.20;;;;;;500066;237;1161;-44
2022/12/15 14:08:45;;;;;;;;;;;22.00;30.20;;;;;;500091;237;1191;-44
2022/12/15 14:10:47;;;;;;;;;;;22.00;30.20;;;;;;500240;237;1157;-43
2022/12/15 14:12:48;;;;;;;;;;;22.00;30.20;;;;;;500009;237;2201;-44
2022/12/15 14:14:51;;;;;;;;;;;22.00;30.20;;;;;;500054;237;1119;-43
2022/12/15 14:16:50;;;;;;;;;;;22.00;30.20;;;;;;500053;237;1856;-44
2022/12/15 14:18:52;;;;;;;;;;;22.00;30.20;;;;;;500135;237;1241;-43
2022/12/15 14:20:53;;;;;;;;;;;21.90;30.10;;;;;;500099;237;1197;-44
2022/12/15 14:22:55;;;;;;;;;;;21.90;30.10;;;;;;500263;237;1234;-44
2022/12/15 14:24:56;;;;;;;;;;;21.90;30.20;;;;;;500216;237;1213;-44
2022/12/15 14:26:57;;;;;;;;;;;21.90;30.20;;;;;;500013;237;1082;-44
2022/12/15 14:28:59;;;;;;;;;;;21.90;30.20;;;;;;500284;237;1192;-43
2022/12/15 14:31:00;;;;;;;;;;;21.90;30.20;;;;;;500107;237;1212;-44
2022/12/15 14:33:01;;;;;;;;;;;21.90;30.30;;;;;;500144;237;2183;-44
2022/12/15 14:35:03;;;;;;;;;;;21.90;30.30;;;;;;500215;237;1161;-44
2022/12/15 14:37:04;;;;;;;;;;;21.90;30.30;;;;;;500013;237;1127;-44
2022/12/15 14:39:05;;;;;;;;;;;21.90;30.30;;;;;;500162;237;1164;-43
2022/12/15 14:41:07;;;;;;;;;;;21.80;30.20;;;;;;500176;237;1143;-43
2022/12/15 14:43:08;;;;;;;;;;;21.90;30.30;;;;;;500062;238;1949;-44
2022/12/15 14:45:09;;;;;;;;;;;21.90;30.20;;;;;;500176;237;1501;-44
2022/12/15 14:47:10;;;;;;;;;;;21.80;30.20;;;;;;500034;237;1173;-43
2022/12/15 14:49:12;;;;;;;;;;;21.80;30.20;;;;;;500129;237;1278;-44
2022/12/15 14:51:13;;;;;;;;;;;21.80;30.20;;;;;;500270;237;1182;-43
2022/12/15 14:53:15;;;;;;;;;;;21.90;30.30;;;;;;500143;237;2164;-44
2022/12/15 14:55:16;;;;;;;;;;;21.80;30.10;;;;;;500149;237;1202;-44
2022/12/15 14:57:17;;;;;;;;;;;21.80;30.20;;;;;;500191;237;1141;-43
2022/12/15 14:59:18;;;;;;;;;;;21.80;30.30;;;;;;500311;237;1217;-44
2022/12/15 15:01:20;;;;;;;;;;;21.80;30.20;;;;;;500243;237;1182;-44
2022/12/15 15:03:21;;;;;;;;;;;21.80;30.30;;;;;;500434;237;1215;-44
2022/12/15 15:05:23;;;;;;;;;;;21.80;30.20;;;;;;500399;237;1174;-43
2022/12/15 15:07:24;;;;;;;;;;;21.80;30.20;;;;;;500190;237;1198;-44
2022/12/15 15:09:25;;;;;;;;;;;21.80;30.20;;;;;;500083;237;1323;-44
2022/12/15 15:11:28;;;;;;;;;;;21.80;30.20;;;;;;500628;237;1185;-44
2022/12/15 15:13:29;;;;;;;;;;;21.90;30.20;;;;;;500087;238;2172;-44
2022/12/15 15:15:30;;;;;;;;;;;21.90;30.10;;;;;;500164;237;1542;-44
2022/12/15 15:17:31;;;;;;;;;;;21.90;30.10;;;;;;500191;237;1102;-44
2022/12/15 15:19:33;;;;;;;;;;;21.90;30.10;;;;;;500485;237;1220;-44
2022/12/15 15:21:35;;;;;;;;;;;21.90;30.10;;;;;;500485;237;1165;-44
2022/12/15 15:23:35;;;;;;;;;;;21.90;30.00;;;;;;500426;237;1895;-44
2022/12/15 15:25:37;;;;;;;;;;;21.90;30.10;;;;;;500229;237;1119;-43
2022/12/15 15:27:39;;;;;;;;;;;21.90;30.00;;;;;;500076;237;1066;-44
2022/12/15 15:29:40;;;;;;;;;;;21.90;30.10;;;;;;500240;237;1209;-44
2022/12/15 15:31:41;;;;;;;;;;;21.90;30.10;;;;;;500406;237;2192;-44
2022/12/15 15:33:43;;;;;;;;;;;22.00;30.10;;;;;;500456;237;1241;-44
2022/12/15 15:35:44;;;;;;;;;;;22.00;30.10;;;;;;500415;237;1080;-44
2022/12/15 15:37:45;;;;;;;;;;;22.00;30.10;;;;;;500552;237;1141;-44
2022/12/15 15:39:47;;;;;;;;;;;22.00;30.00;;;;;;500461;237;1083;-44
2022/12/15 15:41:48;;;;;;;;;;;22.00;30.00;;;;;;500116;237;1083;-44
2022/12/15 15:43:50;;;;;;;;;;;22.00;30.00;;;;;;500068;237;1064;-44
2022/12/15 15:45:51;;;;;;;;;;;22.00;30.00;;;;;;500019;237;1464;-43
2022/12/15 15:47:52;;;;;;;;;;;22.00;30.00;;;;;;500126;237;1064;-43
2022/12/15 15:49:54;;;;;;;;;;;22.00;30.00;;;;;;500277;237;1173;-44
2022/12/15 15:51:55;;;;;;;;;;;22.00;30.00;;;;;;500262;237;2148;-43
2022/12/15 15:53:57;;;;;;;;;;;22.00;30.00;;;;;;500165;237;1141;-43
2022/12/15 15:55:58;;;;;;;;;;;22.00;30.00;;;;;;500678;237;1103;-44
2022/12/15 15:57:59;;;;;;;;;;;22.00;30.00;;;;;;500625;237;1207;-43
2022/12/15 16:00:00;;;;;;;;;;;22.00;30.00;;;;;;500365;237;1151;-43
2022/12/15 16:02:02;;;;;;;;;;;22.00;30.00;;;;;;500153;237;1146;-43
2022/12/15 16:04:04;;;;;;;;;;;22.00;30.00;;;;;;500601;237;1282;-44
2022/12/15 16:06:05;;;;;;;;;;;22.00;30.00;;;;;;500134;237;1558;-44
2022/12/15 16:08:07;;;;;;;;;;;22.00;30.00;;;;;;500170;237;1070;-44
2022/12/15 16:10:08;;;;;;;;;;;22.00;30.00;;;;;;500011;237;2388;-43
2022/12/15 16:12:09;;;;;;;;;;;22.00;30.00;;;;;;500159;237;2148;-44
2022/12/15 16:14:11;;;;;;;;;;;22.00;30.00;;;;;;500049;237;1074;-44
2022/12/15 16:16:12;;;;;;;;;;;22.00;30.00;;;;;;500108;237;1205;-43
2022/12/15 16:18:13;;;;;;;;;;;22.10;30.00;;;;;;500080;237;1123;-44
2022/12/15 16:20:14;;;;;;;;;;;22.00;30.00;;;;;;500217;237;1174;-43
2022/12/15 16:22:16;;;;;;;;;;;22.00;30.00;;;;;;500211;237;1136;-44
2022/12/15 16:24:17;;;;;;;;;;;22.00;30.10;;;;;;500226;237;1135;-44
2022/12/15 16:26:18;;;;;;;;;;;22.00;30.10;;;;;;500220;237;1228;-44
2022/12/15 16:28:20;;;;;;;;;;;22.00;30.10;;;;;;500323;237;1075;-44
2022/12/15 16:30:22;;;;;;;;;;;22.00;30.10;;;;;;500095;237;1193;-43
2022/12/15 16:32:23;;;;;;;;;;;22.00;30.10;;;;;;500389;237;2191;-44
2022/12/15 16:34:24;;;;;;;;;;;22.00;30.10;;;;;;500268;237;1115;-44
2022/12/15 16:36:26;;;;;;;;;;;22.00;30.10;;;;;;500322;237;1173;-44
2022/12/15 16:38:27;;;;;;;;;;;22.00;30.10;;;;;;500477;237;1099;-44
2022/12/15 16:40:28;;;;;;;;;;;22.00;30.10;;;;;;500211;237;1133;-43
2022/12/15 16:42:30;;;;;;;;;;;22.00;30.10;;;;;;500492;237;1122;-43
2022/12/15 16:44:31;;;;;;;;;;;22.10;30.10;;;;;;500555;237;1218;-44
2022/12/15 16:46:32;;;;;;;;;;;22.00;30.10;;;;;;500190;237;1226;-44
2022/12/15 16:48:34;;;;;;;;;;;22.00;30.20;;;;;;500330;237;1183;-44
2022/12/15 16:50:35;;;;;;;;;;;22.00;30.20;;;;;;500664;237;1072;-43
2022/12/15 16:52:36;;;;;;;;;;;22.00;30.10;;;;;;500348;237;2161;-43
2022/12/15 16:54:38;;;;;;;;;;;22.00;30.20;;;;;;500821;237;1196;-44
2022/12/15 16:56:41;;;;;;;;;;;22.00;30.10;;;;;;500592;237;1156;-44
2022/12/15 16:58:41;;;;;;;;;;;22.00;30.10;;;;;;500306;238;2077;-44
2022/12/15 17:00:42;;;;;;;;;;;22.00;30.10;;;;;;500354;237;1240;-44
2022/12/15 17:02:44;;;;;;;;;;;22.00;30.10;;;;;;500767;237;1971;-44
2022/12/15 17:04:45;;;;;;;;;;;22.00;30.20;;;;;;500125;237;1194;-43
2022/12/15 17:06:46;;;;;;;;;;;22.00;30.20;;;;;;500410;237;1086;-44
2022/12/15 17:08:48;;;;;;;;;;;22.00;30.30;;;;;;500238;237;1181;-44
2022/12/15 17:10:49;;;;;;;;;;;22.00;30.30;;;;;;500630;237;1086;-43
2022/12/15 17:12:50;;;;;;;;;;;22.00;30.20;;;;;;500291;237;2136;-44
2022/12/15 17:14:52;;;;;;;;;;;22.00;30.30;;;;;;500475;237;1186;-44
2022/12/15 17:16:53;;;;;;;;;;;22.00;30.20;;;;;;500276;237;1260;-44
2022/12/15 17:18:54;;;;;;;;;;;22.00;30.20;;;;;;500473;237;1072;-44
2022/12/15 17:20:55;;;;;;;;;;;22.00;30.20;;;;;;500407;237;1091;-43
2022/12/15 17:22:57;;;;;;;;;;;22.00;30.30;;;;;;500387;237;1238;-44
2022/12/15 17:24:58;;;;;;;;;;;22.00;30.30;;;;;;500410;237;1207;-44
2022/12/15 17:27:00;;;;;;;;;;;22.00;30.30;;;;;;500457;237;1172;-44
2022/12/15 17:29:01;;;;;;;;;;;22.00;30.30;;;;;;500678;237;1167;-44
2022/12/15 17:31:02;;;;;;;;;;;22.00;30.20;;;;;;500586;237;1185;-44
2022/12/15 17:33:04;;;;;;;;;;;22.00;30.30;;;;;;500331;237;2152;-44
2022/12/15 17:35:05;;;;;;;;;;;22.00;30.30;;;;;;500548;237;1265;-43
2022/12/15 17:37:07;;;;;;;;;;;22.00;30.30;;;;;;500394;237;1082;-43
2022/12/15 17:39:08;;;;;;;;;;;22.10;30.30;;;;;;500241;237;1132;-44
2022/12/15 17:41:09;;;;;;;;;;;22.10;30.30;;;;;;500323;237;1070;-44
2022/12/15 17:43:11;;;;;;;;;;;22.00;30.30;;;;;;500423;237;1106;-44
2022/12/15 17:45:13;;;;;;;;;;;22.10;30.30;;;;;;500852;237;1174;-44
2022/12/15 17:47:14;;;;;;;;;;;22.00;30.40;;;;;;500455;237;1199;-44
2022/12/15 17:49:15;;;;;;;;;;;22.00;30.40;;;;;;500441;237;1288;-44
2022/12/15 17:51:17;;;;;;;;;;;21.90;30.40;;;;;;500475;237;1065;-44
2022/12/15 17:53:18;;;;;;;;;;;21.90;30.40;;;;;;500498;237;2179;-44
2022/12/15 17:55:19;;;;;;;;;;;21.90;30.50;;;;;;500909;237;1093;-44
2022/12/15 17:57:21;;;;;;;;;;;21.80;30.50;;;;;;500539;237;1259;-44
2022/12/15 17:59:22;;;;;;;;;;;21.90;30.60;;;;;;500485;237;1170;-44
2022/12/15 18:01:23;;;;;;;;;;;21.80;30.60;;;;;;500692;237;1222;-44
2022/12/15 18:03:25;;;;;;;;;;;21.90;30.60;;;;;;500328;237;1168;-44
2022/12/15 18:05:26;;;;;;;;;;;21.80;30.60;;;;;;500486;237;1175;-43
2022/12/15 18:07:27;;;;;;;;;;;21.80;30.70;;;;;;500338;237;1074;-43
2022/12/15 18:09:29;;;;;;;;;;;21.80;30.60;;;;;;500835;237;1173;-44
2022/12/15 18:11:30;;;;;;;;;;;21.70;30.70;;;;;;500304;237;1146;-44
2022/12/15 18:13:31;;;;;;;;;;;21.70;30.70;;;;;;500872;237;2200;-44
2022/12/15 18:15:33;;;;;;;;;;;21.70;30.80;;;;;;500427;237;1118;-44
2022/12/15 18:17:34;;;;;;;;;;;21.70;30.80;;;;;;500446;237;1167;-44
2022/12/15 18:19:35;;;;;;;;;;;21.70;30.80;;;;;;500897;237;1212;-44
2022/12/15 18:21:37;;;;;;;;;;;21.70;30.80;;;;;;500813;237;1091;-44
2022/12/15 18:23:38;;;;;;;;;;;21.70;30.80;;;;;;500757;237;1175;-44
2022/12/15 18:25:39;;;;;;;;;;;21.60;30.80;;;;;;500893;237;1214;-44
2022/12/15 18:27:40;;;;;;;;;;;21.70;30.90;;;;;;500850;237;1084;-44
2022/12/15 18:29:42;;;;;;;;;;;21.60;30.90;;;;;;500830;237;1116;-44
2022/12/15 18:31:43;;;;;;;;;;;21.70;30.90;;;;;;500536;237;1171;-43
2022/12/15 18:33:44;;;;;;;;;;;21.60;30.90;;;;;;500928;237;2168;-44
2022/12/15 18:35:46;;;;;;;;;;;21.60;30.90;;;;;;500931;237;1157;-44
2022/12/15 18:37:47;;;;;;;;;;;21.60;30.90;;;;;;500917;237;1091;-44
2022/12/15 18:39:49;;;;;;;;;;;21.60;30.90;;;;;;500865;237;1136;-44
2022/12/15 18:41:51;;;;;;;;;;;21.60;30.90;;;;;;500537;237;1152;-44
2022/12/15 18:43:55;;;;;;;;;;;21.60;30.90;;;;;;500922;237;1180;-44
2022/12/15 18:45:53;;;;;;;;;;;21.60;30.90;;;;;;500211;238;1969;-44
2022/12/15 18:47:54;;;;;;;;;;;21.70;30.90;;;;;;500514;237;1200;-44
2022/12/15 18:49:56;;;;;;;;;;;21.90;30.60;;;;;;500566;237;1152;-43
2022/12/15 18:51:57;;;;;;;;;;;22.10;30.30;;;;;;500454;237;1068;-44
2022/12/15 18:53:59;;;;;;;;;;;22.30;30.10;;;;;;500906;237;2184;-44
2022/12/15 18:56:00;;;;;;;;;;;22.40;29.90;;;;;;500499;237;1112;-44
2022/12/15 18:58:02;;;;;;;;;;;22.60;29.80;;;;;;500417;237;1123;-44
2022/12/15 19:00:04;;;;;;;;;;;22.60;29.70;;;;;;500440;237;1601;-44
2022/12/15 19:02:05;;;;;;;;;;;22.60;29.80;;;;;;500354;237;1232;-43
2022/12/15 19:04:07;;;;;;;;;;;22.40;29.90;;;;;;501004;237;1097;-44
2022/12/15 19:06:09;;;;;;;;;;;22.20;30.00;;;;;;501020;237;1064;-44
2022/12/15 19:08:09;;;;;;;;;;;22.10;30.20;;;;;;500927;238;2001;-44
2022/12/15 19:10:10;;;;;;;;;;;22.00;30.30;;;;;;501008;237;1132;-43
2022/12/15 19:12:18;;;;;;;;;;;22.20;30.30;;;;;;500508;237;1174;-44
2022/12/15 19:23:51;;;;;;;;;;;22.50;29.80;;;;;;491215;242;1093;-44
2022/12/15 19:25:52;;;;;;;;;;;22.30;30.00;;;;;;491390;243;1143;-44
2022/12/15 19:27:57;;;;;;;;;;;22.10;30.10;;;;;;490916;243;1193;-44
2022/12/15 19:29:55;;;;;;;;;;;22.10;30.30;;;;;;491205;243;1855;-44
2022/12/15 19:31:57;;;;;;;;;;;22.00;30.50;;;;;;491374;243;1212;-44
2022/12/15 19:33:58;;;;;;;;;;;22.00;30.50;;;;;;490931;243;2208;-44
2022/12/15 19:35:59;;;;;;;;;;;21.90;30.50;;;;;;491157;243;1164;-44
2022/12/15 19:38:01;;;;;;;;;;;21.90;30.60;;;;;;491281;243;1220;-44
2022/12/15 19:40:02;;;;;;;;;;;21.80;30.70;;;;;;490952;243;1162;-44
2022/12/15 19:42:04;;;;;;;;;;;21.90;30.70;;;;;;490919;243;1201;-43
2022/12/15 19:44:05;;;;;;;;;;;21.80;30.70;;;;;;491403;243;1711;-43
2022/12/15 19:46:06;;;;;;;;;;;21.80;30.80;;;;;;491254;243;1113;-44
2022/12/15 19:48:08;;;;;;;;;;;21.80;30.80;;;;;;490963;243;1473;-44
2022/12/15 19:50:09;;;;;;;;;;;21.80;30.80;;;;;;490949;243;1114;-44
2022/12/15 19:52:10;;;;;;;;;;;22.00;30.50;;;;;;491386;243;1180;-44
2022/12/15 19:54:12;;;;;;;;;;;22.20;30.20;;;;;;490966;243;2192;-44
2022/12/15 19:56:14;;;;;;;;;;;22.40;30.00;;;;;;499711;238;1649;-44
2022/12/15 19:58:15;;;;;;;;;;;22.50;29.90;;;;;;500977;237;1105;-44
2022/12/15 20:00:16;;;;;;;;;;;22.70;29.80;;;;;;500548;237;1116;-44
2022/12/15 20:02:18;;;;;;;;;;;22.60;29.80;;;;;;500521;237;1192;-44
2022/12/15 20:04:19;;;;;;;;;;;22.60;29.90;;;;;;500958;237;1101;-44
2022/12/15 20:06:20;;;;;;;;;;;22.40;30.00;;;;;;500607;237;1026;-43
2022/12/15 20:08:22;;;;;;;;;;;22.20;30.10;;;;;;500992;237;1089;-44
2022/12/15 20:10:24;;;;;;;;;;;22.10;30.20;;;;;;501020;237;1208;-44
2022/12/15 20:12:26;;;;;;;;;;;22.10;30.40;;;;;;500986;237;1070;-44
2022/12/15 20:14:26;;;;;;;;;;;22.10;30.50;;;;;;500519;238;2157;-44
2022/12/15 20:16:28;;;;;;;;;;;22.20;30.30;;;;;;500680;237;1120;-44
2022/12/15 20:18:29;;;;;;;;;;;22.40;30.00;;;;;;500745;237;1199;-43
2022/12/15 20:20:30;;;;;;;;;;;22.50;29.90;;;;;;500436;237;1102;-44
2022/12/15 20:22:32;;;;;;;;;;;22.60;29.80;;;;;;500533;237;1073;-44
2022/12/15 20:24:33;;;;;;;;;;;22.60;29.80;;;;;;500581;237;1157;-44
2022/12/15 20:26:34;;;;;;;;;;;22.50;29.80;;;;;;500579;237;1109;-44
2022/12/15 20:28:36;;;;;;;;;;;22.40;30.00;;;;;;500818;237;1230;-44
2022/12/15 20:30:37;;;;;;;;;;;22.30;30.00;;;;;;500488;237;1075;-44
2022/12/15 20:32:38;;;;;;;;;;;22.20;30.10;;;;;;500823;237;1204;-44
2022/12/15 20:34:39;;;;;;;;;;;22.20;30.30;;;;;;500710;237;2148;-44
2022/12/15 20:36:41;;;;;;;;;;;22.10;30.40;;;;;;500749;237;1116;-44
2022/12/15 20:38:42;;;;;;;;;;;22.00;30.40;;;;;;500597;237;1064;-44
2022/12/15 20:40:43;;;;;;;;;;;22.00;30.50;;;;;;500555;237;1207;-43
2022/12/15 20:42:45;;;;;;;;;;;22.00;30.50;;;;;;500572;237;1087;-44
2022/12/15 20:44:46;;;;;;;;;;;22.00;30.50;;;;;;500981;237;1093;-44
2022/12/15 20:46:47;;;;;;;;;;;22.00;30.50;;;;;;500604;237;1064;-44
2022/12/15 20:48:49;;;;;;;;;;;22.00;30.60;;;;;;500520;237;1180;-44
2022/12/15 20:50:50;;;;;;;;;;;22.00;30.60;;;;;;500514;237;1059;-44
2022/12/15 20:52:51;;;;;;;;;;;22.00;30.50;;;;;;500479;237;1105;-44
2022/12/15 20:54:53;;;;;;;;;;;22.00;30.50;;;;;;500931;237;2188;-44
2022/12/15 20:56:54;;;;;;;;;;;22.00;30.60;;;;;;500925;237;1086;-44
2022/12/15 20:58:55;;;;;;;;;;;22.00;30.60;;;;;;500867;237;1096;-44
2022/12/15 21:00:57;;;;;;;;;;;22.00;30.60;;;;;;500643;237;1094;-44
2022/12/15 21:02:58;;;;;;;;;;;22.00;30.60;;;;;;500986;237;1053;-44
2022/12/15 21:04:59;;;;;;;;;;;22.00;30.60;;;;;;500511;237;1183;-44
2022/12/15 21:07:01;;;;;;;;;;;22.00;30.60;;;;;;500991;237;1077;-44
2022/12/15 21:09:02;;;;;;;;;;;22.00;30.60;;;;;;500504;237;1140;-44
2022/12/15 21:11:04;;;;;;;;;;;22.00;30.60;;;;;;500759;237;1061;-44
2022/12/15 21:13:05;;;;;;;;;;;22.00;30.60;;;;;;500994;237;1126;-44
2022/12/15 21:15:06;;;;;;;;;;;22.00;30.60;;;;;;500829;237;2152;-44
2022/12/15 21:17:08;;;;;;;;;;;22.00;30.70;;;;;;500899;237;1102;-44
2022/12/15 21:19:09;;;;;;;;;;;22.00;30.60;;;;;;500448;237;1079;-44
2022/12/15 21:21:10;;;;;;;;;;;22.00;30.60;;;;;;500905;237;1094;-44
2022/12/15 21:23:12;;;;;;;;;;;22.00;30.60;;;;;;500988;237;1078;-44
2022/12/15 21:25:13;;;;;;;;;;;22.00;30.70;;;;;;500511;237;1234;-44
2022/12/15 21:27:14;;;;;;;;;;;22.00;30.70;;;;;;500853;237;1200;-44
2022/12/15 21:29:16;;;;;;;;;;;22.00;30.70;;;;;;500951;237;1107;-44
2022/12/15 21:31:17;;;;;;;;;;;22.00;30.70;;;;;;500645;237;1106;-44
2022/12/15 21:33:19;;;;;;;;;;;22.00;30.70;;;;;;501007;237;1164;-44
2022/12/15 21:35:20;;;;;;;;;;;21.90;30.70;;;;;;500538;237;2191;-44
2022/12/15 21:37:22;;;;;;;;;;;22.00;30.70;;;;;;500989;237;1014;-43
2022/12/15 21:39:23;;;;;;;;;;;22.00;30.70;;;;;;500978;237;1087;-44
2022/12/15 21:41:24;;;;;;;;;;;22.00;30.70;;;;;;500952;237;1167;-44
2022/12/15 21:43:26;;;;;;;;;;;22.00;30.70;;;;;;500989;237;1097;-44
2022/12/15 21:45:27;;;;;;;;;;;22.00;30.70;;;;;;500497;237;1121;-44
2022/12/15 21:49:13;;;;;;;;;;;22.00;30.60;;;;;;501008;237;1135;-44
2022/12/15 21:49:30;;;;;;;;;;;22.00;30.60;;;;;;498751;238;1155;-44
2022/12/15 21:51:31;;;;;;;;;;;22.00;30.60;;;;;;501000;237;1099;-44
2022/12/15 21:53:33;;;;;;;;;;;22.10;30.60;;;;;;500508;237;1369;-44
2022/12/15 21:55:34;;;;;;;;;;;22.30;30.40;;;;;;500897;237;2203;-44
2022/12/15 21:57:35;;;;;;;;;;;22.30;30.20;;;;;;500859;237;1243;-44
2022/12/15 21:59:37;;;;;;;;;;;22.20;30.30;;;;;;500698;237;1154;-44
2022/12/15 22:01:38;;;;;;;;;;;22.20;30.40;;;;;;500938;237;1180;-44
2022/12/15 22:03:39;;;;;;;;;;;22.10;30.50;;;;;;500522;237;1104;-44
2022/12/15 22:05:41;;;;;;;;;;;22.10;30.50;;;;;;500544;237;1301;-44
2022/12/15 22:07:42;;;;;;;;;;;22.10;30.60;;;;;;500538;237;1035;-44
2022/12/15 22:09:43;;;;;;;;;;;22.00;30.60;;;;;;500517;237;1121;-44
2022/12/15 22:11:45;;;;;;;;;;;22.00;30.60;;;;;;500970;237;1070;-44
2022/12/15 22:13:46;;;;;;;;;;;22.00;30.70;;;;;;500941;237;1142;-44
2022/12/15 22:15:47;;;;;;;;;;;22.00;30.70;;;;;;500500;237;2204;-44
2022/12/15 22:17:49;;;;;;;;;;;22.00;30.70;;;;;;500988;237;1065;-44
2022/12/15 22:19:50;;;;;;;;;;;22.00;30.60;;;;;;500738;237;1095;-44